createdAt,value
2018-07-23T00:00:00.304Z,24.69
2018-07-23T00:00:26.491Z,24.68
2018-07-23T00:00:52.656Z,24.78
2018-07-23T00:01:18.799Z,24.65
2018-07-23T00:01:44.946Z,24.76
2018-07-23T00:02:11.110Z,24.78
2018-07-23T00:02:37.254Z,24.74
2018-07-23T00:03:03.412Z,24.66
2018-07-23T00:03:29.553Z,24.66
2018-07-23T00:03:55.732Z,24.68
2018-07-23T00:04:21.889Z,24.7
2018-07-23T00:04:48.081Z,24.69
2018-07-23T00:05:14.263Z,24.68
2018-07-23T00:05:40.431Z,24.66
2018-07-23T00:06:06.553Z,24.6
2018-07-23T00:06:32.730Z,24.54
2018-07-23T00:06:58.887Z,24.58
2018-07-23T00:07:25.038Z,24.53
2018-07-23T00:07:51.181Z,24.54
2018-07-23T00:08:17.356Z,24.54
2018-07-23T00:08:43.496Z,24.6
2018-07-23T00:09:09.637Z,24.57
2018-07-23T00:09:35.802Z,24.4
2018-07-23T00:10:01.943Z,24.42
2018-07-23T00:10:28.108Z,24.53
2018-07-23T00:10:54.235Z,24.57
2018-07-23T00:11:20.375Z,24.51
2018-07-23T00:11:46.514Z,24.54
2018-07-23T00:12:12.651Z,24.58
2018-07-23T00:12:38.793Z,24.53
2018-07-23T00:13:04.937Z,24.4
2018-07-23T00:13:31.082Z,24.51
2018-07-23T00:13:57.776Z,24.47
2018-07-23T00:14:24.300Z,24.42
2018-07-23T00:14:50.439Z,24.4
2018-07-23T00:15:16.578Z,24.45
2018-07-23T00:15:42.718Z,24.43
2018-07-23T00:16:08.882Z,24.4
2018-07-23T00:16:35.040Z,24.4
2018-07-23T00:17:01.178Z,24.45
2018-07-23T00:17:27.338Z,24.43
2018-07-23T00:17:53.479Z,24.43
2018-07-23T00:18:19.619Z,24.47
2018-07-23T00:18:45.757Z,24.4
2018-07-23T00:19:11.901Z,24.39
2018-07-23T00:19:38.036Z,24.36
2018-07-23T00:20:04.184Z,24.43
2018-07-23T00:20:30.324Z,24.4
2018-07-23T00:20:56.494Z,24.39
2018-07-23T00:21:22.637Z,24.35
2018-07-23T00:21:48.802Z,24.32
2018-07-23T00:22:14.936Z,24.33
2018-07-23T00:22:41.070Z,24.36
2018-07-23T00:23:07.233Z,24.35
2018-07-23T00:23:33.367Z,24.35
2018-07-23T00:23:59.530Z,24.33
2018-07-23T00:24:25.686Z,24.35
2018-07-23T00:24:51.828Z,24.35
2018-07-23T00:25:17.996Z,24.35
2018-07-23T00:25:44.140Z,24.33
2018-07-23T00:26:10.269Z,24.29
2018-07-23T00:26:36.412Z,24.35
2018-07-23T00:27:02.553Z,24.36
2018-07-23T00:27:28.694Z,24.36
2018-07-23T00:27:54.858Z,24.4
2018-07-23T00:28:20.996Z,24.4
2018-07-23T00:28:47.136Z,24.4
2018-07-23T00:29:13.278Z,24.4
2018-07-23T00:29:39.413Z,24.38
2018-07-23T00:30:05.578Z,24.36
2018-07-23T00:30:31.711Z,24.35
2018-07-23T00:30:57.880Z,24.32
2018-07-23T00:31:24.026Z,24.35
2018-07-23T00:31:50.170Z,24.33
2018-07-23T00:32:16.330Z,24.33
2018-07-23T00:32:42.509Z,24.35
2018-07-23T00:33:08.642Z,24.36
2018-07-23T00:33:34.778Z,24.39
2018-07-23T00:34:00.921Z,24.38
2018-07-23T00:34:27.083Z,24.32
2018-07-23T00:34:53.233Z,24.32
2018-07-23T00:35:19.368Z,24.32
2018-07-23T00:35:45.504Z,24.33
2018-07-23T00:36:11.645Z,24.33
2018-07-23T00:36:37.786Z,24.35
2018-07-23T00:37:03.926Z,24.35
2018-07-23T00:37:30.062Z,24.28
2018-07-23T00:37:56.213Z,24.33
2018-07-23T00:38:22.368Z,24.32
2018-07-23T00:38:48.507Z,24.32
2018-07-23T00:39:14.642Z,24.35
2018-07-23T00:39:40.788Z,24.35
2018-07-23T00:40:06.951Z,24.45
2018-07-23T00:40:33.092Z,24.36
2018-07-23T00:40:59.235Z,24.32
2018-07-23T00:41:25.374Z,24.39
2018-07-23T00:41:51.516Z,24.38
2018-07-23T00:42:17.656Z,24.39
2018-07-23T00:42:43.796Z,24.33
2018-07-23T00:43:09.935Z,24.36
2018-07-23T00:43:36.060Z,24.3
2018-07-23T00:44:02.206Z,24.24
2018-07-23T00:44:28.354Z,24.24
2018-07-23T00:44:54.539Z,24.16
2018-07-23T00:45:20.703Z,24.18
2018-07-23T00:45:46.872Z,24.16
2018-07-23T00:46:13.009Z,24.21
2018-07-23T00:46:39.150Z,24.11
2018-07-23T00:47:05.291Z,24.11
2018-07-23T00:47:31.454Z,24.05
2018-07-23T00:47:57.617Z,24.06
2018-07-23T00:48:23.754Z,24.06
2018-07-23T00:48:49.884Z,24.06
2018-07-23T00:49:16.048Z,24.06
2018-07-23T00:49:42.209Z,24.03
2018-07-23T00:50:08.345Z,24.03
2018-07-23T00:50:34.491Z,24.13
2018-07-23T00:51:00.629Z,24.1
2018-07-23T00:51:26.769Z,24.14
2018-07-23T00:51:52.914Z,24.11
2018-07-23T00:52:19.050Z,24.14
2018-07-23T00:52:45.189Z,24.14
2018-07-23T00:53:11.326Z,24.14
2018-07-23T00:53:37.468Z,24.1
2018-07-23T00:54:03.611Z,24.1
2018-07-23T00:54:29.744Z,24.05
2018-07-23T00:54:55.888Z,24.02
2018-07-23T00:55:22.024Z,23.99
2018-07-23T00:55:48.190Z,24.03
2018-07-23T00:56:14.323Z,24.05
2018-07-23T00:56:40.468Z,24.05
2018-07-23T00:57:06.607Z,23.98
2018-07-23T00:57:32.738Z,24.02
2018-07-23T00:57:58.909Z,23.95
2018-07-23T00:58:25.051Z,23.96
2018-07-23T00:58:51.195Z,23.91
2018-07-23T00:59:17.341Z,23.93
2018-07-23T00:59:43.507Z,23.92
2018-07-23T01:00:09.646Z,23.87
2018-07-23T01:00:35.785Z,23.92
2018-07-23T01:01:01.927Z,23.95
2018-07-23T01:01:28.063Z,23.87
2018-07-23T01:01:54.223Z,23.92
2018-07-23T01:02:20.371Z,23.86
2018-07-23T01:02:46.512Z,23.86
2018-07-23T01:03:12.650Z,23.92
2018-07-23T01:03:38.794Z,23.8
2018-07-23T01:04:04.931Z,23.91
2018-07-23T01:04:31.078Z,23.84
2018-07-23T01:04:57.226Z,23.86
2018-07-23T01:05:23.412Z,23.86
2018-07-23T01:05:49.544Z,23.93
2018-07-23T01:06:15.681Z,23.86
2018-07-23T01:06:41.823Z,23.81
2018-07-23T01:07:07.966Z,23.83
2018-07-23T01:07:34.102Z,23.92
2018-07-23T01:08:00.233Z,23.96
2018-07-23T01:08:26.402Z,23.81
2018-07-23T01:08:52.535Z,23.87
2018-07-23T01:09:18.696Z,23.84
2018-07-23T01:09:44.831Z,23.8
2018-07-23T01:10:10.970Z,23.8
2018-07-23T01:10:37.117Z,23.77
2018-07-23T01:11:03.253Z,23.71
2018-07-23T01:11:29.394Z,23.76
2018-07-23T01:11:55.530Z,23.77
2018-07-23T01:12:21.692Z,23.8
2018-07-23T01:12:47.829Z,23.81
2018-07-23T01:13:13.980Z,23.83
2018-07-23T01:13:40.114Z,23.74
2018-07-23T01:14:06.260Z,23.8
2018-07-23T01:14:32.804Z,23.76
2018-07-23T01:14:58.959Z,23.83
2018-07-23T01:15:25.097Z,23.8
2018-07-23T01:15:51.232Z,23.8
2018-07-23T01:16:17.397Z,23.8
2018-07-23T01:16:43.538Z,23.8
2018-07-23T01:17:09.673Z,23.88
2018-07-23T01:17:35.812Z,23.87
2018-07-23T01:18:01.966Z,23.76
2018-07-23T01:18:28.092Z,23.78
2018-07-23T01:18:54.229Z,23.86
2018-07-23T01:19:20.375Z,23.83
2018-07-23T01:19:46.517Z,23.81
2018-07-23T01:20:12.662Z,23.83
2018-07-23T01:20:38.815Z,23.8
2018-07-23T01:21:04.954Z,23.78
2018-07-23T01:21:31.122Z,23.81
2018-07-23T01:21:57.260Z,23.77
2018-07-23T01:22:23.402Z,23.88
2018-07-23T01:22:49.564Z,23.8
2018-07-23T01:23:15.730Z,23.81
2018-07-23T01:23:41.869Z,23.74
2018-07-23T01:24:08.007Z,23.78
2018-07-23T01:24:34.170Z,23.78
2018-07-23T01:25:00.302Z,23.86
2018-07-23T01:25:26.449Z,23.87
2018-07-23T01:25:52.586Z,23.86
2018-07-23T01:26:18.749Z,23.87
2018-07-23T01:26:44.877Z,23.81
2018-07-23T01:27:11.019Z,23.87
2018-07-23T01:27:37.183Z,23.87
2018-07-23T01:28:03.325Z,23.87
2018-07-23T01:28:29.491Z,23.84
2018-07-23T01:28:55.625Z,23.87
2018-07-23T01:29:21.764Z,23.88
2018-07-23T01:29:47.895Z,23.87
2018-07-23T01:30:14.060Z,23.87
2018-07-23T01:30:40.193Z,23.8
2018-07-23T01:31:06.335Z,23.76
2018-07-23T01:31:32.470Z,23.77
2018-07-23T01:31:58.606Z,23.81
2018-07-23T01:32:24.752Z,23.84
2018-07-23T01:32:50.885Z,23.92
2018-07-23T01:33:17.021Z,23.86
2018-07-23T01:33:43.182Z,23.87
2018-07-23T01:34:09.319Z,23.87
2018-07-23T01:34:35.466Z,23.84
2018-07-23T01:35:01.605Z,23.81
2018-07-23T01:35:27.759Z,23.84
2018-07-23T01:35:53.906Z,23.91
2018-07-23T01:36:20.043Z,23.88
2018-07-23T01:36:46.180Z,23.87
2018-07-23T01:37:12.324Z,23.92
2018-07-23T01:37:38.467Z,23.95
2018-07-23T01:38:04.606Z,23.88
2018-07-23T01:38:30.749Z,23.95
2018-07-23T01:38:56.887Z,23.87
2018-07-23T01:39:23.026Z,23.91
2018-07-23T01:39:49.165Z,23.91
2018-07-23T01:40:15.309Z,23.83
2018-07-23T01:40:41.447Z,23.87
2018-07-23T01:41:07.588Z,23.83
2018-07-23T01:41:33.776Z,23.78
2018-07-23T01:41:59.913Z,23.78
2018-07-23T01:42:26.052Z,23.77
2018-07-23T01:42:52.192Z,23.81
2018-07-23T01:43:18.350Z,23.84
2018-07-23T01:43:44.484Z,23.87
2018-07-23T01:44:10.625Z,23.87
2018-07-23T01:44:36.765Z,23.83
2018-07-23T01:45:02.919Z,23.8
2018-07-23T01:45:29.047Z,23.77
2018-07-23T01:45:55.185Z,23.78
2018-07-23T01:46:21.328Z,23.8
2018-07-23T01:46:47.464Z,23.73
2018-07-23T01:47:13.600Z,23.76
2018-07-23T01:47:39.744Z,23.78
2018-07-23T01:48:05.882Z,23.76
2018-07-23T01:48:32.017Z,23.77
2018-07-23T01:48:58.160Z,23.8
2018-07-23T01:49:24.299Z,23.8
2018-07-23T01:49:50.470Z,23.81
2018-07-23T01:50:16.611Z,23.83
2018-07-23T01:50:42.743Z,23.77
2018-07-23T01:51:08.884Z,23.8
2018-07-23T01:51:35.018Z,23.78
2018-07-23T01:52:01.157Z,23.78
2018-07-23T01:52:27.290Z,23.78
2018-07-23T01:52:53.430Z,23.83
2018-07-23T01:53:19.562Z,23.77
2018-07-23T01:53:45.707Z,23.77
2018-07-23T01:54:11.850Z,23.78
2018-07-23T01:54:37.987Z,23.78
2018-07-23T01:55:04.130Z,23.71
2018-07-23T01:55:30.292Z,23.78
2018-07-23T01:55:56.439Z,23.8
2018-07-23T01:56:22.578Z,23.84
2018-07-23T01:56:48.717Z,23.84
2018-07-23T01:57:14.883Z,23.83
2018-07-23T01:57:41.019Z,23.8
2018-07-23T01:58:07.163Z,23.91
2018-07-23T01:58:33.293Z,23.88
2018-07-23T01:58:59.438Z,23.88
2018-07-23T01:59:25.590Z,23.88
2018-07-23T01:59:51.707Z,23.91
2018-07-23T02:00:17.845Z,23.95
2018-07-23T02:00:44.016Z,23.96
2018-07-23T02:01:10.155Z,23.95
2018-07-23T02:01:36.299Z,23.95
2018-07-23T02:02:02.466Z,23.92
2018-07-23T02:02:28.597Z,23.98
2018-07-23T02:02:54.739Z,23.93
2018-07-23T02:03:20.878Z,23.92
2018-07-23T02:03:47.021Z,24.02
2018-07-23T02:04:13.160Z,23.93
2018-07-23T02:04:39.294Z,23.95
2018-07-23T02:05:05.436Z,23.95
2018-07-23T02:05:31.575Z,23.87
2018-07-23T02:05:57.719Z,24.01
2018-07-23T02:06:23.883Z,23.88
2018-07-23T02:06:50.024Z,23.96
2018-07-23T02:07:16.166Z,23.93
2018-07-23T02:07:42.312Z,23.91
2018-07-23T02:08:08.471Z,23.86
2018-07-23T02:08:34.610Z,23.87
2018-07-23T02:09:00.758Z,23.95
2018-07-23T02:09:26.884Z,23.87
2018-07-23T02:09:53.048Z,23.86
2018-07-23T02:10:19.187Z,23.95
2018-07-23T02:10:45.326Z,23.96
2018-07-23T02:11:11.467Z,23.96
2018-07-23T02:11:37.610Z,23.93
2018-07-23T02:12:03.745Z,23.93
2018-07-23T02:12:29.884Z,23.91
2018-07-23T02:12:56.026Z,23.92
2018-07-23T02:13:22.184Z,23.92
2018-07-23T02:13:48.324Z,23.93
2018-07-23T02:14:14.483Z,23.98
2018-07-23T02:14:41.294Z,23.99
2018-07-23T02:15:07.433Z,24.01
2018-07-23T02:15:33.573Z,24.01
2018-07-23T02:15:59.709Z,23.99
2018-07-23T02:16:25.871Z,24.05
2018-07-23T02:16:52.006Z,24.08
2018-07-23T02:17:18.151Z,24.03
2018-07-23T02:17:44.291Z,24.02
2018-07-23T02:18:10.484Z,23.98
2018-07-23T02:18:36.600Z,23.91
2018-07-23T02:19:02.738Z,24.02
2018-07-23T02:19:28.904Z,23.96
2018-07-23T02:19:55.044Z,23.98
2018-07-23T02:20:21.182Z,23.95
2018-07-23T02:20:47.321Z,23.96
2018-07-23T02:21:13.472Z,23.95
2018-07-23T02:21:39.619Z,23.99
2018-07-23T02:22:05.767Z,23.99
2018-07-23T02:22:31.904Z,24.01
2018-07-23T02:22:58.047Z,23.99
2018-07-23T02:23:24.182Z,23.99
2018-07-23T02:23:50.364Z,23.98
2018-07-23T02:24:16.502Z,23.95
2018-07-23T02:24:42.640Z,23.96
2018-07-23T02:25:08.783Z,23.98
2018-07-23T02:25:34.919Z,23.98
2018-07-23T02:26:01.061Z,23.96
2018-07-23T02:26:27.200Z,23.91
2018-07-23T02:26:53.336Z,23.99
2018-07-23T02:27:19.474Z,23.95
2018-07-23T02:27:45.624Z,24.03
2018-07-23T02:28:11.749Z,23.98
2018-07-23T02:28:37.892Z,23.96
2018-07-23T02:29:04.035Z,23.91
2018-07-23T02:29:30.166Z,23.96
2018-07-23T02:29:56.304Z,23.95
2018-07-23T02:30:22.467Z,23.95
2018-07-23T02:30:48.608Z,23.88
2018-07-23T02:31:14.773Z,23.92
2018-07-23T02:31:40.955Z,23.92
2018-07-23T02:32:07.147Z,23.99
2018-07-23T02:32:33.325Z,23.95
2018-07-23T02:32:59.533Z,23.98
2018-07-23T02:33:25.685Z,23.93
2018-07-23T02:33:51.855Z,23.93
2018-07-23T02:34:18.022Z,24.03
2018-07-23T02:34:44.183Z,23.95
2018-07-23T02:35:10.334Z,23.92
2018-07-23T02:35:36.515Z,23.95
2018-07-23T02:36:02.718Z,23.92
2018-07-23T02:36:28.908Z,23.92
2018-07-23T02:36:55.044Z,23.84
2018-07-23T02:37:21.212Z,23.87
2018-07-23T02:37:47.374Z,23.88
2018-07-23T02:38:13.536Z,23.91
2018-07-23T02:38:39.695Z,23.84
2018-07-23T02:39:05.863Z,23.91
2018-07-23T02:39:32.033Z,23.84
2018-07-23T02:39:58.193Z,23.8
2018-07-23T02:40:24.355Z,23.83
2018-07-23T02:40:50.547Z,23.8
2018-07-23T02:41:16.707Z,23.78
2018-07-23T02:41:42.906Z,23.86
2018-07-23T02:42:09.074Z,23.78
2018-07-23T02:42:35.236Z,23.77
2018-07-23T02:43:01.379Z,23.74
2018-07-23T02:43:27.539Z,23.66
2018-07-23T02:43:53.679Z,23.65
2018-07-23T02:44:19.845Z,23.71
2018-07-23T02:44:46.008Z,23.71
2018-07-23T02:45:12.144Z,23.74
2018-07-23T02:45:38.286Z,23.76
2018-07-23T02:46:04.426Z,23.65
2018-07-23T02:46:30.596Z,23.65
2018-07-23T02:46:56.786Z,23.71
2018-07-23T02:47:23.002Z,23.62
2018-07-23T02:47:49.186Z,23.69
2018-07-23T02:48:15.333Z,23.65
2018-07-23T02:48:41.494Z,23.71
2018-07-23T02:49:07.661Z,23.59
2018-07-23T02:49:33.844Z,23.65
2018-07-23T02:50:00.000Z,23.51
2018-07-23T02:50:26.152Z,23.55
2018-07-23T02:50:52.274Z,23.61
2018-07-23T02:51:18.440Z,23.5
2018-07-23T02:51:44.578Z,23.48
2018-07-23T02:52:10.735Z,23.54
2018-07-23T02:52:36.897Z,23.63
2018-07-23T02:53:03.036Z,23.56
2018-07-23T02:53:29.189Z,23.61
2018-07-23T02:53:55.324Z,23.47
2018-07-23T02:54:21.460Z,23.55
2018-07-23T02:54:47.609Z,23.5
2018-07-23T02:55:13.775Z,23.48
2018-07-23T02:55:39.968Z,23.43
2018-07-23T02:56:06.128Z,23.48
2018-07-23T02:56:32.268Z,23.47
2018-07-23T02:56:58.435Z,23.51
2018-07-23T02:57:24.620Z,23.55
2018-07-23T02:57:50.759Z,23.5
2018-07-23T02:58:16.927Z,23.5
2018-07-23T02:58:43.061Z,23.47
2018-07-23T02:59:09.201Z,23.48
2018-07-23T02:59:35.371Z,23.47
2018-07-23T03:00:01.488Z,23.47
2018-07-23T03:00:27.642Z,23.37
2018-07-23T03:00:53.795Z,23.37
2018-07-23T03:01:19.959Z,23.39
2018-07-23T03:01:46.069Z,23.37
2018-07-23T03:02:12.227Z,23.46
2018-07-23T03:02:38.399Z,23.43
2018-07-23T03:03:04.538Z,23.47
2018-07-23T03:03:30.672Z,23.54
2018-07-23T03:03:56.853Z,23.55
2018-07-23T03:04:23.019Z,23.54
2018-07-23T03:04:49.186Z,23.46
2018-07-23T03:05:15.342Z,23.55
2018-07-23T03:05:41.517Z,23.44
2018-07-23T03:06:07.654Z,23.41
2018-07-23T03:06:33.808Z,23.46
2018-07-23T03:06:59.971Z,23.39
2018-07-23T03:07:26.145Z,23.43
2018-07-23T03:07:52.316Z,23.44
2018-07-23T03:08:18.506Z,23.44
2018-07-23T03:08:44.648Z,23.4
2018-07-23T03:09:10.797Z,23.48
2018-07-23T03:09:36.963Z,23.39
2018-07-23T03:10:03.141Z,23.41
2018-07-23T03:10:29.308Z,23.32
2018-07-23T03:10:55.515Z,23.36
2018-07-23T03:11:21.638Z,23.34
2018-07-23T03:11:47.777Z,23.31
2018-07-23T03:12:13.963Z,23.36
2018-07-23T03:12:40.081Z,23.37
2018-07-23T03:13:06.219Z,23.27
2018-07-23T03:13:32.364Z,23.34
2018-07-23T03:13:58.501Z,23.27
2018-07-23T03:14:24.641Z,23.39
2018-07-23T03:14:51.009Z,23.37
2018-07-23T03:15:17.245Z,23.32
2018-07-23T03:15:43.594Z,23.24
2018-07-23T03:16:09.961Z,23.36
2018-07-23T03:16:36.207Z,23.25
2018-07-23T03:17:02.456Z,23.36
2018-07-23T03:17:28.713Z,23.37
2018-07-23T03:17:54.943Z,23.27
2018-07-23T03:18:21.133Z,23.27
2018-07-23T03:18:47.305Z,23.41
2018-07-23T03:19:13.480Z,23.27
2018-07-23T03:19:39.641Z,23.36
2018-07-23T03:20:05.807Z,23.28
2018-07-23T03:20:31.977Z,23.31
2018-07-23T03:20:58.117Z,23.32
2018-07-23T03:21:24.258Z,23.31
2018-07-23T03:21:50.521Z,23.31
2018-07-23T03:22:16.554Z,23.31
2018-07-23T03:22:42.725Z,23.28
2018-07-23T03:23:08.892Z,23.27
2018-07-23T03:23:35.105Z,23.31
2018-07-23T03:24:01.266Z,23.34
2018-07-23T03:24:27.407Z,23.31
2018-07-23T03:24:53.542Z,23.31
2018-07-23T03:25:19.712Z,23.23
2018-07-23T03:25:45.850Z,23.23
2018-07-23T03:26:11.997Z,23.27
2018-07-23T03:26:38.130Z,23.21
2018-07-23T03:27:04.331Z,23.24
2018-07-23T03:27:30.489Z,23.18
2018-07-23T03:27:56.627Z,23.21
2018-07-23T03:28:22.772Z,23.2
2018-07-23T03:28:48.910Z,23.31
2018-07-23T03:29:15.053Z,23.23
2018-07-23T03:29:41.191Z,23.24
2018-07-23T03:30:07.360Z,23.17
2018-07-23T03:30:33.510Z,23.18
2018-07-23T03:30:59.676Z,23.2
2018-07-23T03:31:25.863Z,23.18
2018-07-23T03:31:52.032Z,23.1
2018-07-23T03:32:18.164Z,23.17
2018-07-23T03:32:44.325Z,23.15
2018-07-23T03:33:10.486Z,23.13
2018-07-23T03:33:36.624Z,23.1
2018-07-23T03:34:02.767Z,23.12
2018-07-23T03:34:28.930Z,23.09
2018-07-23T03:34:55.074Z,23.03
2018-07-23T03:35:21.217Z,23.05
2018-07-23T03:35:47.352Z,23.06
2018-07-23T03:36:13.483Z,23.02
2018-07-23T03:36:39.647Z,23
2018-07-23T03:37:05.776Z,23.05
2018-07-23T03:37:31.919Z,23.08
2018-07-23T03:37:58.062Z,23.06
2018-07-23T03:38:24.199Z,23.06
2018-07-23T03:38:50.336Z,23
2018-07-23T03:39:16.514Z,23.06
2018-07-23T03:39:42.653Z,23.08
2018-07-23T03:40:08.794Z,23
2018-07-23T03:40:34.929Z,23.03
2018-07-23T03:41:01.080Z,23
2018-07-23T03:41:27.228Z,23.13
2018-07-23T03:41:53.380Z,23.05
2018-07-23T03:42:19.533Z,22.98
2018-07-23T03:42:45.677Z,23.09
2018-07-23T03:43:11.807Z,23.05
2018-07-23T03:43:37.976Z,23.08
2018-07-23T03:44:04.092Z,23.09
2018-07-23T03:44:30.228Z,23.03
2018-07-23T03:44:56.370Z,22.99
2018-07-23T03:45:22.527Z,23.06
2018-07-23T03:45:48.660Z,23.05
2018-07-23T03:46:14.801Z,22.99
2018-07-23T03:46:40.946Z,23.12
2018-07-23T03:47:07.082Z,22.98
2018-07-23T03:47:33.229Z,23.02
2018-07-23T03:47:59.367Z,22.96
2018-07-23T03:48:25.507Z,22.9
2018-07-23T03:48:51.652Z,22.93
2018-07-23T03:49:17.798Z,22.91
2018-07-23T03:49:43.933Z,22.91
2018-07-23T03:50:10.074Z,22.94
2018-07-23T03:50:36.211Z,22.85
2018-07-23T03:51:02.376Z,23.03
2018-07-23T03:51:28.514Z,23
2018-07-23T03:51:54.658Z,23.08
2018-07-23T03:52:20.823Z,23.05
2018-07-23T03:52:46.958Z,22.98
2018-07-23T03:53:13.104Z,22.94
2018-07-23T03:53:39.238Z,22.99
2018-07-23T03:54:05.379Z,22.96
2018-07-23T03:54:31.518Z,22.98
2018-07-23T03:54:57.663Z,23.02
2018-07-23T03:55:23.828Z,23
2018-07-23T03:55:50.001Z,22.9
2018-07-23T03:56:16.114Z,22.96
2018-07-23T03:56:42.256Z,23.02
2018-07-23T03:57:08.388Z,22.98
2018-07-23T03:57:34.533Z,22.99
2018-07-23T03:58:00.671Z,23.06
2018-07-23T03:58:26.813Z,23
2018-07-23T03:58:52.954Z,23
2018-07-23T03:59:19.092Z,22.96
2018-07-23T03:59:45.237Z,22.98
2018-07-23T04:00:11.419Z,22.98
2018-07-23T04:00:37.559Z,23.02
2018-07-23T04:01:03.699Z,23.03
2018-07-23T04:01:29.833Z,22.93
2018-07-23T04:01:55.975Z,23.05
2018-07-23T04:02:22.105Z,23.02
2018-07-23T04:02:48.248Z,23.02
2018-07-23T04:03:14.390Z,23
2018-07-23T04:03:40.526Z,22.93
2018-07-23T04:04:06.660Z,23.05
2018-07-23T04:04:32.829Z,23.08
2018-07-23T04:04:58.996Z,22.96
2018-07-23T04:05:25.173Z,22.9
2018-07-23T04:05:51.306Z,22.94
2018-07-23T04:06:17.470Z,22.96
2018-07-23T04:06:43.612Z,22.87
2018-07-23T04:07:09.750Z,22.84
2018-07-23T04:07:35.887Z,22.91
2018-07-23T04:08:02.052Z,22.9
2018-07-23T04:08:28.190Z,22.9
2018-07-23T04:08:54.328Z,22.94
2018-07-23T04:09:20.472Z,22.9
2018-07-23T04:09:46.607Z,22.9
2018-07-23T04:10:12.757Z,22.9
2018-07-23T04:10:38.933Z,22.88
2018-07-23T04:11:05.089Z,22.96
2018-07-23T04:11:31.233Z,22.91
2018-07-23T04:11:57.373Z,22.96
2018-07-23T04:12:23.510Z,22.96
2018-07-23T04:12:49.674Z,22.93
2018-07-23T04:13:15.819Z,22.9
2018-07-23T04:13:41.970Z,22.88
2018-07-23T04:14:08.103Z,22.94
2018-07-23T04:14:34.261Z,22.94
2018-07-23T04:15:00.402Z,22.91
2018-07-23T04:15:26.546Z,22.87
2018-07-23T04:15:52.687Z,22.93
2018-07-23T04:16:18.822Z,22.9
2018-07-23T04:16:44.960Z,22.91
2018-07-23T04:17:11.101Z,22.88
2018-07-23T04:17:37.281Z,22.9
2018-07-23T04:18:03.444Z,22.91
2018-07-23T04:18:29.658Z,22.91
2018-07-23T04:18:55.794Z,22.93
2018-07-23T04:19:21.928Z,22.96
2018-07-23T04:19:48.066Z,22.9
2018-07-23T04:20:14.204Z,22.94
2018-07-23T04:20:40.338Z,22.94
2018-07-23T04:21:06.485Z,22.88
2018-07-23T04:21:32.614Z,22.91
2018-07-23T04:21:58.770Z,22.85
2018-07-23T04:22:24.909Z,22.93
2018-07-23T04:22:51.051Z,22.84
2018-07-23T04:23:17.196Z,22.83
2018-07-23T04:23:43.331Z,22.81
2018-07-23T04:24:09.498Z,22.83
2018-07-23T04:24:35.639Z,22.85
2018-07-23T04:25:01.778Z,22.84
2018-07-23T04:25:27.936Z,22.8
2018-07-23T04:25:54.075Z,22.83
2018-07-23T04:26:20.214Z,22.88
2018-07-23T04:26:46.355Z,22.83
2018-07-23T04:27:12.497Z,22.84
2018-07-23T04:27:38.661Z,22.83
2018-07-23T04:28:04.799Z,22.8
2018-07-23T04:28:30.936Z,22.81
2018-07-23T04:28:57.074Z,22.88
2018-07-23T04:29:23.223Z,22.83
2018-07-23T04:29:49.360Z,22.81
2018-07-23T04:30:15.503Z,22.81
2018-07-23T04:30:41.639Z,22.81
2018-07-23T04:31:07.778Z,22.81
2018-07-23T04:31:33.916Z,22.7
2018-07-23T04:32:00.050Z,22.69
2018-07-23T04:32:26.192Z,22.69
2018-07-23T04:32:52.328Z,22.72
2018-07-23T04:33:18.466Z,22.66
2018-07-23T04:33:44.627Z,22.69
2018-07-23T04:34:10.770Z,22.68
2018-07-23T04:34:36.917Z,22.73
2018-07-23T04:35:03.054Z,22.7
2018-07-23T04:35:29.199Z,22.72
2018-07-23T04:35:55.330Z,22.72
2018-07-23T04:36:21.490Z,22.76
2018-07-23T04:36:47.637Z,22.87
2018-07-23T04:37:13.797Z,22.73
2018-07-23T04:37:39.964Z,22.69
2018-07-23T04:38:06.122Z,22.66
2018-07-23T04:38:32.258Z,22.66
2018-07-23T04:38:58.394Z,22.65
2018-07-23T04:39:24.539Z,22.73
2018-07-23T04:39:50.673Z,22.66
2018-07-23T04:40:16.823Z,22.68
2018-07-23T04:40:42.990Z,22.66
2018-07-23T04:41:09.120Z,22.66
2018-07-23T04:41:35.272Z,22.68
2018-07-23T04:42:01.414Z,22.68
2018-07-23T04:42:27.571Z,22.68
2018-07-23T04:42:53.711Z,22.72
2018-07-23T04:43:19.841Z,22.7
2018-07-23T04:43:46.014Z,22.7
2018-07-23T04:44:12.182Z,22.68
2018-07-23T04:44:38.321Z,22.69
2018-07-23T04:45:04.463Z,22.69
2018-07-23T04:45:30.598Z,22.69
2018-07-23T04:45:56.741Z,22.65
2018-07-23T04:46:22.905Z,22.68
2018-07-23T04:46:49.043Z,22.72
2018-07-23T04:47:15.176Z,22.66
2018-07-23T04:47:41.308Z,22.69
2018-07-23T04:48:07.450Z,22.7
2018-07-23T04:48:33.598Z,22.69
2018-07-23T04:48:59.736Z,22.73
2018-07-23T04:49:25.873Z,22.83
2018-07-23T04:49:52.019Z,22.75
2018-07-23T04:50:18.160Z,22.72
2018-07-23T04:50:44.364Z,22.81
2018-07-23T04:51:10.478Z,22.76
2018-07-23T04:51:36.619Z,22.73
2018-07-23T04:52:02.752Z,22.87
2018-07-23T04:52:28.896Z,22.7
2018-07-23T04:52:55.040Z,22.72
2018-07-23T04:53:21.181Z,22.73
2018-07-23T04:53:47.313Z,22.76
2018-07-23T04:54:13.482Z,22.75
2018-07-23T04:54:39.628Z,22.8
2018-07-23T04:55:05.763Z,22.73
2018-07-23T04:55:31.947Z,22.83
2018-07-23T04:55:58.095Z,22.83
2018-07-23T04:56:24.236Z,22.84
2018-07-23T04:56:50.468Z,22.84
2018-07-23T04:57:16.507Z,22.84
2018-07-23T04:57:42.647Z,22.84
2018-07-23T04:58:08.784Z,22.73
2018-07-23T04:58:34.926Z,22.83
2018-07-23T04:59:01.093Z,22.83
2018-07-23T04:59:27.247Z,22.84
2018-07-23T04:59:53.390Z,22.88
2018-07-23T05:00:19.549Z,22.87
2018-07-23T05:00:45.694Z,22.88
2018-07-23T05:01:11.830Z,22.93
2018-07-23T05:01:37.990Z,22.9
2018-07-23T05:02:04.141Z,22.91
2018-07-23T05:02:30.271Z,22.93
2018-07-23T05:02:56.411Z,22.9
2018-07-23T05:03:22.552Z,22.9
2018-07-23T05:03:48.690Z,22.9
2018-07-23T05:04:14.823Z,22.88
2018-07-23T05:04:40.966Z,22.94
2018-07-23T05:05:07.131Z,22.99
2018-07-23T05:05:33.271Z,22.96
2018-07-23T05:05:59.408Z,23.08
2018-07-23T05:06:25.551Z,22.9
2018-07-23T05:06:51.687Z,22.88
2018-07-23T05:07:17.831Z,22.9
2018-07-23T05:07:43.969Z,22.9
2018-07-23T05:08:10.109Z,22.93
2018-07-23T05:08:36.298Z,22.88
2018-07-23T05:09:02.387Z,22.91
2018-07-23T05:09:28.528Z,22.94
2018-07-23T05:09:54.690Z,22.91
2018-07-23T05:10:20.828Z,22.87
2018-07-23T05:10:46.981Z,22.9
2018-07-23T05:11:13.114Z,22.93
2018-07-23T05:11:39.260Z,22.9
2018-07-23T05:12:05.393Z,23
2018-07-23T05:12:31.540Z,23.03
2018-07-23T05:12:57.678Z,23.06
2018-07-23T05:13:23.902Z,23.03
2018-07-23T05:13:50.037Z,23
2018-07-23T05:14:16.174Z,23.06
2018-07-23T05:14:42.317Z,23.06
2018-07-23T05:15:08.467Z,23.09
2018-07-23T05:15:34.967Z,23.09
2018-07-23T05:16:01.601Z,23.09
2018-07-23T05:16:27.640Z,23.09
2018-07-23T05:16:53.807Z,23.12
2018-07-23T05:17:19.944Z,23.12
2018-07-23T05:17:46.080Z,23.2
2018-07-23T05:18:12.215Z,23.21
2018-07-23T05:18:38.354Z,23.2
2018-07-23T05:19:04.510Z,23.2
2018-07-23T05:19:30.652Z,23.18
2018-07-23T05:19:56.790Z,23.17
2018-07-23T05:20:22.934Z,23.15
2018-07-23T05:20:49.072Z,23.15
2018-07-23T05:21:15.212Z,23.12
2018-07-23T05:21:41.375Z,23.18
2018-07-23T05:22:07.542Z,23.2
2018-07-23T05:22:33.706Z,23.18
2018-07-23T05:22:59.843Z,23.2
2018-07-23T05:23:25.987Z,23.17
2018-07-23T05:23:52.178Z,23.17
2018-07-23T05:24:18.262Z,23.2
2018-07-23T05:24:44.454Z,23.18
2018-07-23T05:25:10.583Z,23.2
2018-07-23T05:25:36.752Z,23.15
2018-07-23T05:26:02.942Z,23.2
2018-07-23T05:26:29.034Z,23.23
2018-07-23T05:26:55.177Z,23.27
2018-07-23T05:27:21.311Z,23.34
2018-07-23T05:27:47.446Z,23.34
2018-07-23T05:28:13.590Z,23.24
2018-07-23T05:28:39.758Z,23.28
2018-07-23T05:29:05.896Z,23.25
2018-07-23T05:29:32.056Z,23.31
2018-07-23T05:29:58.195Z,23.21
2018-07-23T05:30:24.359Z,23.32
2018-07-23T05:30:50.525Z,23.25
2018-07-23T05:31:16.663Z,23.2
2018-07-23T05:31:42.810Z,23.23
2018-07-23T05:32:08.965Z,23.21
2018-07-23T05:32:35.109Z,23.24
2018-07-23T05:33:01.249Z,23.17
2018-07-23T05:33:27.384Z,23.27
2018-07-23T05:33:53.544Z,23.23
2018-07-23T05:34:19.686Z,23.23
2018-07-23T05:34:45.825Z,23.24
2018-07-23T05:35:11.966Z,23.25
2018-07-23T05:35:38.103Z,23.25
2018-07-23T05:36:04.250Z,23.28
2018-07-23T05:36:30.396Z,23.23
2018-07-23T05:36:56.536Z,23.18
2018-07-23T05:37:22.675Z,23.2
2018-07-23T05:37:48.811Z,23.21
2018-07-23T05:38:14.960Z,23.32